createdAt,value
2022-09-25T00:00:23.963Z,94085.63
2022-09-25T00:01:21.403Z,94077.94
2022-09-25T00:02:18.123Z,94086.50
2022-09-25T00:03:16.124Z,94088.19
2022-09-25T00:04:12.779Z,94091.47
2022-09-25T00:05:09.567Z,94087.84
2022-09-25T00:06:09.732Z,94088.56
2022-09-25T00:07:06.321Z,94081.97
2022-09-25T00:08:04.256Z,94083.31
2022-09-25T00:09:06.822Z,94073.72
2022-09-25T00:10:06.975Z,94086.34
2022-09-25T00:11:13.257Z,94082.28
2022-09-25T00:12:09.828Z,94079.94
2022-09-25T00:13:06.405Z,94084.19
2022-09-25T00:14:03.133Z,94086.38
2022-09-25T00:14:59.801Z,94086.09
2022-09-25T00:15:58.017Z,94094.91
2022-09-25T00:16:54.752Z,94087.91
2022-09-25T00:17:51.692Z,94083.59
2022-09-25T00:19:07.319Z,94090.66
2022-09-25T00:20:04.209Z,94091.31
2022-09-25T00:21:01.553Z,94091.16
2022-09-25T00:21:58.210Z,94093.69
2022-09-25T00:22:54.888Z,94094.75
2022-09-25T00:23:51.642Z,94097.38
2022-09-25T00:24:48.781Z,94095.22
2022-09-25T00:25:53.606Z,94093.34
2022-09-25T00:26:50.315Z,94089.28
2022-09-25T00:27:48.461Z,94087.75
2022-09-25T00:28:45.114Z,94092.56
2022-09-25T00:29:41.834Z,94091.94
2022-09-25T00:30:40.711Z,94093.06
2022-09-25T00:31:37.357Z,94080.44
2022-09-25T00:32:34.196Z,94085.75
2022-09-25T00:33:32.731Z,94083.09
2022-09-25T00:34:29.429Z,94087.91
2022-09-25T00:35:26.077Z,94086.34
2022-09-25T00:36:22.748Z,94068.09
2022-09-25T00:37:19.328Z,94090.25
2022-09-25T00:38:15.942Z,94084.00
2022-09-25T00:39:12.569Z,94082.63
2022-09-25T00:40:09.951Z,94079.19
2022-09-25T00:41:07.912Z,94077.78
2022-09-25T00:42:04.610Z,94073.69
2022-09-25T00:43:01.241Z,94072.75
2022-09-25T00:43:59.240Z,94073.38
2022-09-25T00:44:57.490Z,94068.53
2022-09-25T00:45:54.132Z,94072.91
2022-09-25T00:46:50.853Z,94064.03
2022-09-25T00:47:47.441Z,94059.69
2022-09-25T00:49:14.855Z,94062.16
2022-09-25T00:50:21.583Z,94060.13
2022-09-25T00:51:22.057Z,94067.94
2022-09-25T00:52:18.900Z,94046.56
2022-09-25T00:53:22.034Z,94061.88
2022-09-25T00:54:33.318Z,94063.63
2022-09-25T00:55:32.742Z,94062.66
2022-09-25T00:56:34.723Z,94061.56
2022-09-25T00:57:35.048Z,94066.69
2022-09-25T00:58:35.664Z,94073.72
2022-09-25T00:59:41.251Z,94066.16
2022-09-25T01:00:37.940Z,94073.38
2022-09-25T01:01:34.605Z,94073.88
2022-09-25T01:02:35.084Z,94069.81
2022-09-25T01:03:31.825Z,94069.84
2022-09-25T01:04:33.838Z,94064.81
2022-09-25T01:05:36.854Z,94067.34
2022-09-25T01:06:35.128Z,94052.06
2022-09-25T01:07:39.198Z,94056.72
2022-09-25T01:08:37.957Z,94060.31
2022-09-25T01:09:35.815Z,94052.84
2022-09-25T01:10:32.855Z,94059.03
2022-09-25T01:11:31.138Z,94054.88
2022-09-25T01:12:28.101Z,94038.91
2022-09-25T01:13:25.563Z,94059.19
2022-09-25T01:14:22.686Z,94055.13
2022-09-25T01:15:23.683Z,94057.75
2022-09-25T01:16:43.559Z,94062.03
2022-09-25T01:17:58.579Z,94058.28
2022-09-25T01:19:01.879Z,94058.28
2022-09-25T01:20:16.693Z,94052.50
2022-09-25T01:21:43.279Z,94059.84
2022-09-25T01:22:55.053Z,94056.25
2022-09-25T01:24:10.684Z,94054.81
2022-09-25T01:25:58.388Z,94049.97
2022-09-25T01:27:01.762Z,94054.22
2022-09-25T01:28:07.401Z,94049.25
2022-09-25T01:29:27.269Z,94050.31
2022-09-25T01:30:24.194Z,94056.88
2022-09-25T01:31:40.428Z,94057.81
2022-09-25T01:33:10.844Z,94063.28
2022-09-25T01:34:34.221Z,94050.16
2022-09-25T01:35:34.581Z,94055.16
2022-09-25T01:36:42.230Z,94055.16
2022-09-25T01:37:45.738Z,94044.41
2022-09-25T01:38:50.211Z,94023.50
2022-09-25T01:40:13.333Z,94049.06
2022-09-25T01:41:34.146Z,94046.69
2022-09-25T01:42:43.021Z,94047.81
2022-09-25T01:43:52.594Z,94050.16
2022-09-25T01:45:06.310Z,94056.72
2022-09-25T01:46:11.897Z,94054.56
2022-09-25T01:47:18.878Z,94054.03
2022-09-25T01:48:20.429Z,94053.91
2022-09-25T01:49:45.866Z,94058.44
2022-09-25T01:50:51.369Z,94050.78
2022-09-25T01:51:55.749Z,94058.56
2022-09-25T01:52:57.231Z,94056.88
2022-09-25T01:53:58.268Z,94056.84
2022-09-25T01:55:06.936Z,94063.75
2022-09-25T01:56:19.345Z,94060.31
2022-09-25T01:57:26.026Z,94059.22
2022-09-25T01:58:31.971Z,94045.81
2022-09-25T01:59:44.353Z,94037.06
2022-09-25T02:00:50.451Z,94052.66
2022-09-25T02:01:47.976Z,94062.34
2022-09-25T02:02:55.472Z,94046.59
2022-09-25T02:04:03.816Z,94059.03
2022-09-25T02:05:14.983Z,94054.81
2022-09-25T02:06:17.489Z,94061.97
2022-09-25T02:07:16.723Z,94057.00
2022-09-25T02:08:23.201Z,94057.31
2022-09-25T02:09:26.658Z,94060.75
2022-09-25T02:10:30.054Z,94055.94
2022-09-25T02:11:32.938Z,94049.38
2022-09-25T02:12:40.926Z,94053.13
2022-09-25T02:14:02.983Z,94058.25
2022-09-25T02:15:05.817Z,94057.31
2022-09-25T02:16:10.120Z,94051.50
2022-09-25T02:17:12.642Z,94050.25
2022-09-25T02:18:30.189Z,94055.84
2022-09-25T02:19:46.054Z,94044.44
2022-09-25T02:20:46.423Z,94032.31
2022-09-25T02:21:55.556Z,94045.66
2022-09-25T02:22:55.656Z,94053.53
2022-09-25T02:24:15.835Z,94053.41
2022-09-25T02:25:25.566Z,94050.00
2022-09-25T02:26:35.269Z,94047.34
2022-09-25T02:27:33.883Z,94056.97
2022-09-25T02:28:30.834Z,94055.59
2022-09-25T02:29:27.452Z,94056.09
2022-09-25T02:30:24.181Z,94050.41
2022-09-25T02:31:26.488Z,94053.31
2022-09-25T02:32:29.409Z,94059.63
2022-09-25T02:33:26.629Z,94057.47
2022-09-25T02:34:23.897Z,94057.81
2022-09-25T02:35:21.218Z,94058.28
2022-09-25T02:36:20.349Z,94056.25
2022-09-25T02:37:18.405Z,94058.75
2022-09-25T02:38:16.092Z,94057.66
2022-09-25T02:39:16.048Z,94057.19
2022-09-25T02:40:12.991Z,94047.84
2022-09-25T02:41:17.911Z,94054.66
2022-09-25T02:42:14.887Z,94059.19
2022-09-25T02:43:38.403Z,94051.28
2022-09-25T02:45:10.510Z,94059.22
2022-09-25T02:46:45.783Z,94057.50
2022-09-25T02:48:04.053Z,94058.72
2022-09-25T02:49:35.665Z,94061.81
2022-09-25T02:50:41.244Z,94059.31
2022-09-25T02:51:52.227Z,94057.59
2022-09-25T02:53:30.793Z,94050.63
2022-09-25T02:55:02.817Z,94019.13
2022-09-25T02:56:45.982Z,94050.31
2022-09-25T02:57:53.449Z,94051.88
2022-09-25T02:58:54.979Z,94060.91
2022-09-25T02:59:59.401Z,94047.78
2022-09-25T03:00:57.892Z,94055.47
2022-09-25T03:01:57.020Z,94032.88
2022-09-25T03:02:59.626Z,94050.47
2022-09-25T03:03:59.706Z,94051.13
2022-09-25T03:04:58.892Z,94048.28
2022-09-25T03:05:57.661Z,94051.44
2022-09-25T03:06:54.672Z,94051.44
2022-09-25T03:08:12.220Z,94054.84
2022-09-25T03:09:11.919Z,94056.06
2022-09-25T03:10:09.055Z,94052.78
2022-09-25T03:11:14.114Z,94059.97
2022-09-25T03:12:10.739Z,94051.72
2022-09-25T03:13:18.854Z,94047.66
2022-09-25T03:14:15.477Z,94045.16
2022-09-25T03:15:13.197Z,94035.31
2022-09-25T03:16:20.347Z,94038.09
2022-09-25T03:17:17.650Z,94051.38
2022-09-25T03:18:14.760Z,94054.34
2022-09-25T03:19:11.913Z,94056.09
2022-09-25T03:20:10.038Z,94053.88
2022-09-25T03:21:06.736Z,94047.16
2022-09-25T03:22:03.510Z,94036.53
2022-09-25T03:23:00.104Z,94048.41
2022-09-25T03:23:57.098Z,94052.47
2022-09-25T03:24:54.085Z,94038.09
2022-09-25T03:25:54.061Z,94041.84
2022-09-25T03:26:51.234Z,94040.31
2022-09-25T03:27:47.819Z,94037.56
2022-09-25T03:28:44.580Z,94037.84
2022-09-25T03:29:42.733Z,94038.28
2022-09-25T03:30:41.099Z,94028.78
2022-09-25T03:31:37.963Z,94012.88
2022-09-25T03:32:34.721Z,94038.63
2022-09-25T03:33:38.084Z,94030.22
2022-09-25T03:34:34.671Z,94039.44
2022-09-25T03:35:31.229Z,94044.41
2022-09-25T03:36:30.082Z,94042.69
2022-09-25T03:37:26.679Z,94033.63
2022-09-25T03:38:23.298Z,94038.28
2022-09-25T03:39:19.939Z,94036.72
2022-09-25T03:40:16.788Z,94042.81
2022-09-25T03:41:15.705Z,94032.84
2022-09-25T03:42:12.422Z,94034.06
2022-09-25T03:44:05.047Z,94037.19
2022-09-25T03:45:02.265Z,94033.50
2022-09-25T03:45:58.983Z,94020.47
2022-09-25T03:46:55.614Z,94009.09
2022-09-25T03:47:52.201Z,94036.63
2022-09-25T03:48:49.057Z,94036.28
2022-09-25T03:49:45.656Z,94042.25
2022-09-25T03:50:42.312Z,94038.00
2022-09-25T03:51:39.160Z,94048.16
2022-09-25T03:52:35.752Z,94048.16
2022-09-25T03:53:33.655Z,94051.84
2022-09-25T03:54:30.380Z,94037.53
2022-09-25T03:55:27.020Z,94042.25
2022-09-25T03:56:26.629Z,94054.03
2022-09-25T03:57:23.245Z,94052.78
2022-09-25T03:58:20.441Z,94052.28
2022-09-25T03:59:17.042Z,94057.72
2022-09-25T04:00:14.732Z,94063.97
2022-09-25T04:01:11.680Z,94042.72
2022-09-25T04:02:08.879Z,94059.22
2022-09-25T04:03:05.585Z,94052.44
2022-09-25T04:04:03.381Z,94054.97
2022-09-25T04:05:00.262Z,94056.25
2022-09-25T04:05:59.019Z,94038.91
2022-09-25T04:06:56.229Z,94068.03
2022-09-25T04:07:52.871Z,94061.34
2022-09-25T04:08:50.141Z,94057.28
2022-09-25T04:09:46.755Z,94055.47
2022-09-25T04:10:43.600Z,94055.47
2022-09-25T04:11:40.217Z,94048.25
2022-09-25T04:12:36.829Z,94052.69
2022-09-25T04:13:36.495Z,94035.53
2022-09-25T04:14:33.105Z,94050.03
2022-09-25T04:15:30.250Z,94052.41
2022-09-25T04:16:28.087Z,94036.47
2022-09-25T04:17:24.783Z,94056.41
2022-09-25T04:18:21.360Z,94060.22
2022-09-25T04:19:18.009Z,94064.34
2022-09-25T04:20:14.888Z,94048.13
2022-09-25T04:21:13.328Z,94048.81
2022-09-25T04:22:09.913Z,94056.50
2022-09-25T04:23:06.532Z,94057.72
2022-09-25T04:24:21.673Z,94061.03
2022-09-25T04:25:25.690Z,94047.78
2022-09-25T04:26:22.577Z,94064.34
2022-09-25T04:27:22.914Z,94070.75
2022-09-25T04:28:21.149Z,94063.91
2022-09-25T04:29:18.104Z,94061.38
2022-09-25T04:30:14.747Z,94065.81
2022-09-25T04:31:11.353Z,94064.38
2022-09-25T04:32:27.048Z,94057.06
2022-09-25T04:33:42.147Z,94058.09
2022-09-25T04:34:38.726Z,94061.13
2022-09-25T04:35:35.368Z,94067.28
2022-09-25T04:36:32.591Z,94062.06
2022-09-25T04:37:29.256Z,94044.09
2022-09-25T04:38:25.834Z,94059.91
2022-09-25T04:39:22.517Z,94062.00
2022-09-25T04:40:19.280Z,94063.56
2022-09-25T04:41:17.752Z,94065.88
2022-09-25T04:42:15.493Z,94060.13
2022-09-25T04:43:12.103Z,94062.91
2022-09-25T04:44:08.742Z,94059.63
2022-09-25T04:45:06.146Z,94055.41
2022-09-25T04:46:05.092Z,94060.91
2022-09-25T04:47:01.753Z,94061.41
2022-09-25T04:48:00.322Z,94058.31
2022-09-25T04:48:57.034Z,94058.44
2022-09-25T04:49:53.644Z,94047.59
2022-09-25T04:50:51.678Z,94062.31
2022-09-25T04:51:48.344Z,94064.16
2022-09-25T04:52:44.925Z,94061.22
2022-09-25T04:53:41.938Z,94060.78
2022-09-25T04:54:38.489Z,94059.84
2022-09-25T04:55:35.089Z,94059.31
2022-09-25T04:56:31.774Z,94057.75
2022-09-25T04:57:56.551Z,94057.63
2022-09-25T04:58:46.548Z,94058.38
2022-09-25T04:59:43.281Z,94059.00
2022-09-25T05:00:41.044Z,94064.94
2022-09-25T05:01:38.559Z,94067.16
2022-09-25T05:02:35.379Z,94063.59
2022-09-25T05:03:32.201Z,94068.44
2022-09-25T05:04:28.873Z,94068.09
2022-09-25T05:05:28.257Z,94068.88
2022-09-25T05:06:27.010Z,94073.88
2022-09-25T05:07:23.616Z,94073.56
2022-09-25T05:08:20.308Z,94064.53
2022-09-25T05:09:16.967Z,94036.31
2022-09-25T05:10:14.713Z,94068.25
2022-09-25T05:11:11.500Z,94077.13
2022-09-25T05:12:08.206Z,94083.69
2022-09-25T05:13:05.377Z,94082.34
2022-09-25T05:14:02.452Z,94074.34
2022-09-25T05:14:59.093Z,94080.28
2022-09-25T05:15:56.439Z,94072.22
2022-09-25T05:16:53.185Z,94062.84
2022-09-25T05:17:50.141Z,94065.38
2022-09-25T05:18:46.807Z,94070.81
2022-09-25T05:19:43.446Z,94065.75
2022-09-25T05:20:40.096Z,94060.25
2022-09-25T05:21:36.819Z,94066.47
2022-09-25T05:22:33.439Z,94062.59
2022-09-25T05:23:30.395Z,94056.75
2022-09-25T05:24:27.155Z,94063.56
2022-09-25T05:25:27.927Z,94053.81
2022-09-25T05:26:24.789Z,94060.28
2022-09-25T05:27:22.598Z,94063.81
2022-09-25T05:28:19.210Z,94057.78
2022-09-25T05:29:15.833Z,94066.19
2022-09-25T05:30:12.872Z,94063.06
2022-09-25T05:31:09.976Z,94059.72
2022-09-25T05:32:06.910Z,94050.38
2022-09-25T05:33:03.600Z,94059.00
2022-09-25T05:34:00.203Z,94068.81
2022-09-25T05:34:56.844Z,94068.34
2022-09-25T05:35:53.474Z,94066.75
2022-09-25T05:36:50.453Z,94063.31
2022-09-25T05:37:47.289Z,94073.50
2022-09-25T05:38:43.881Z,94069.88
2022-09-25T05:39:40.474Z,94065.84
2022-09-25T05:40:39.389Z,94062.31
2022-09-25T05:41:36.382Z,94060.00
2022-09-25T05:42:33.476Z,94059.00
2022-09-25T05:43:30.156Z,94053.78
2022-09-25T05:44:28.429Z,94061.09
2022-09-25T05:45:25.206Z,94059.31
2022-09-25T05:46:21.833Z,94054.44
2022-09-25T05:47:18.776Z,94061.66
2022-09-25T05:48:16.279Z,94053.44
2022-09-25T05:49:12.962Z,94059.88
2022-09-25T05:50:16.000Z,94062.19
2022-09-25T05:51:12.785Z,94062.63
2022-09-25T05:52:09.362Z,94062.91
2022-09-25T05:53:06.228Z,94064.72
2022-09-25T05:54:02.847Z,94003.84
2022-09-25T05:54:59.445Z,94068.69
2022-09-25T05:55:59.871Z,94062.44
2022-09-25T05:56:56.637Z,94074.34
2022-09-25T05:57:53.273Z,94065.47
2022-09-25T05:58:49.954Z,94069.50
2022-09-25T05:59:46.633Z,94063.75
2022-09-25T06:00:43.490Z,94063.97
2022-09-25T06:01:41.303Z,94061.63
2022-09-25T06:02:38.050Z,94064.47
2022-09-25T06:03:35.054Z,94061.69
2022-09-25T06:04:31.782Z,94066.00
2022-09-25T06:05:28.747Z,94057.81
2022-09-25T06:06:27.577Z,94065.97
2022-09-25T06:07:24.382Z,94052.19
2022-09-25T06:08:20.971Z,94068.41
2022-09-25T06:09:17.528Z,94065.13
2022-09-25T06:10:14.209Z,94063.13
2022-09-25T06:11:11.563Z,94068.13
2022-09-25T06:12:08.147Z,94062.44
2022-09-25T06:13:05.270Z,94056.53
2022-09-25T06:14:02.844Z,94060.81
2022-09-25T06:14:59.494Z,94062.09
2022-09-25T06:15:57.227Z,94056.38
2022-09-25T06:16:54.545Z,94062.81
2022-09-25T06:17:51.557Z,94064.91
2022-09-25T06:18:48.247Z,94063.59
2022-09-25T06:19:44.848Z,94072.91
2022-09-25T06:20:41.460Z,94065.78
2022-09-25T06:21:38.020Z,94064.78
2022-09-25T06:22:34.622Z,94061.19
2022-09-25T06:23:31.847Z,94069.81
2022-09-25T06:24:28.511Z,94066.53
2022-09-25T06:25:27.393Z,94062.81
2022-09-25T06:26:25.902Z,94060.69
2022-09-25T06:27:22.542Z,94069.72
2022-09-25T06:28:19.195Z,94060.13
2022-09-25T06:29:15.873Z,94059.22
2022-09-25T06:30:12.847Z,94067.31
2022-09-25T06:31:10.122Z,94058.00
2022-09-25T06:32:06.838Z,94060.59
2022-09-25T06:33:09.617Z,94046.53
2022-09-25T06:34:06.524Z,94070.41
2022-09-25T06:35:04.419Z,94064.31
2022-09-25T06:36:01.225Z,94067.94
2022-09-25T06:37:00.489Z,94069.28
2022-09-25T06:37:59.233Z,94073.72
2022-09-25T06:38:56.229Z,94068.53
2022-09-25T06:39:52.917Z,94064.00
2022-09-25T06:40:49.581Z,94076.97
2022-09-25T06:41:46.342Z,94077.94
2022-09-25T06:42:42.962Z,94077.56
2022-09-25T06:43:39.571Z,94082.25
2022-09-25T06:44:36.175Z,94074.75
2022-09-25T06:45:34.580Z,94074.31
2022-09-25T06:46:31.187Z,94077.91
2022-09-25T06:47:27.926Z,94067.31
2022-09-25T06:48:24.635Z,94072.91
2022-09-25T06:49:22.011Z,94069.13
2022-09-25T06:50:18.674Z,94053.84
2022-09-25T06:51:15.224Z,94074.22
2022-09-25T06:52:12.496Z,94063.56
2022-09-25T06:53:11.268Z,94068.28
2022-09-25T06:54:08.074Z,94064.97
2022-09-25T06:55:05.084Z,94077.94
2022-09-25T06:56:02.599Z,94076.69
2022-09-25T06:56:59.198Z,94071.75
2022-09-25T06:57:55.830Z,94074.78
2022-09-25T06:58:52.519Z,94074.28
2022-09-25T06:59:49.146Z,94071.03
2022-09-25T07:00:47.563Z,94074.97
2022-09-25T07:01:44.296Z,94072.78
2022-09-25T07:02:59.588Z,94081.81
2022-09-25T07:03:56.326Z,94075.66
2022-09-25T07:04:52.939Z,94081.84
2022-09-25T07:05:49.734Z,94081.28
2022-09-25T07:06:47.259Z,94073.41
2022-09-25T07:07:44.461Z,94079.44
2022-09-25T07:08:43.680Z,94086.41
2022-09-25T07:09:40.294Z,94082.88
2022-09-25T07:10:36.899Z,94083.31
2022-09-25T07:11:33.502Z,94087.19
2022-09-25T07:12:30.152Z,94091.91
2022-09-25T07:13:30.062Z,94101.88
2022-09-25T07:14:26.843Z,94094.44
2022-09-25T07:15:23.417Z,94092.13
2022-09-25T07:16:21.458Z,94085.50
2022-09-25T07:17:18.088Z,94085.41
2022-09-25T07:18:14.719Z,94088.75
2022-09-25T07:19:11.323Z,94098.84
2022-09-25T07:20:08.375Z,94096.50
2022-09-25T07:21:13.839Z,94095.81
2022-09-25T07:22:11.937Z,94105.44
2022-09-25T07:23:08.624Z,94106.59
2022-09-25T07:24:06.111Z,94097.75
2022-09-25T07:25:02.701Z,94089.50
2022-09-25T07:26:13.260Z,94109.56
2022-09-25T07:27:09.826Z,94100.53
2022-09-25T07:28:07.499Z,94100.53
2022-09-25T07:29:06.360Z,94101.78
2022-09-25T07:30:04.641Z,94103.91
2022-09-25T07:31:11.124Z,94105.13
2022-09-25T07:32:07.844Z,94106.97
2022-09-25T07:33:04.701Z,94102.44
2022-09-25T07:34:08.833Z,94105.22
2022-09-25T07:35:05.576Z,94106.75
2022-09-25T07:36:02.584Z,94112.66
2022-09-25T07:36:59.323Z,94110.38
2022-09-25T07:37:57.447Z,94106.34
2022-09-25T07:38:54.673Z,94096.72
2022-09-25T07:39:51.318Z,94102.31
2022-09-25T07:40:47.975Z,94096.59
2022-09-25T07:41:44.638Z,94098.81
2022-09-25T07:42:42.001Z,94095.66
2022-09-25T07:43:38.824Z,94090.72
2022-09-25T07:44:38.167Z,94077.53
2022-09-25T07:45:35.911Z,94091.03
2022-09-25T07:46:32.635Z,94089.41
2022-09-25T07:47:29.236Z,94095.19
2022-09-25T07:48:27.161Z,94074.53
2022-09-25T07:49:24.089Z,94090.22
2022-09-25T07:50:20.732Z,94082.00
2022-09-25T07:51:18.060Z,94066.81
2022-09-25T07:52:14.793Z,94077.38
2022-09-25T07:53:12.226Z,94083.81
2022-09-25T07:54:09.058Z,94054.25
2022-09-25T07:55:06.602Z,94064.94
2022-09-25T07:56:06.916Z,94062.97
2022-09-25T07:57:03.860Z,94065.84
2022-09-25T07:58:00.426Z,94056.53
2022-09-25T07:58:59.042Z,94060.44
2022-09-25T07:59:55.754Z,94052.59
2022-09-25T08:00:54.443Z,94067.34
2022-09-25T08:01:53.873Z,94053.22
2022-09-25T08:02:58.934Z,94052.03
2022-09-25T08:03:55.889Z,94062.25
2022-09-25T08:04:53.006Z,94056.63
2022-09-25T08:06:01.057Z,94052.66
2022-09-25T08:07:00.969Z,94053.31
2022-09-25T08:07:57.556Z,94062.09
2022-09-25T08:08:54.264Z,94058.56
2022-09-25T08:09:50.879Z,94065.38
2022-09-25T08:10:47.445Z,94062.34
2022-09-25T08:11:44.201Z,94058.31
2022-09-25T08:12:41.038Z,94062.88
2022-09-25T08:13:38.793Z,94062.09
2022-09-25T08:14:35.385Z,94063.44
2022-09-25T08:15:32.035Z,94062.34
2022-09-25T08:16:28.749Z,94055.59
2022-09-25T08:17:31.349Z,94048.31
2022-09-25T08:18:28.009Z,94056.19
2022-09-25T08:19:24.654Z,94060.81
2022-09-25T08:20:21.494Z,94047.59
2022-09-25T08:21:20.378Z,94050.25
2022-09-25T08:22:17.014Z,94047.06
2022-09-25T08:23:13.673Z,94038.56
2022-09-25T08:24:10.985Z,94051.25
2022-09-25T08:25:08.091Z,94048.03
2022-09-25T08:26:04.671Z,94044.72
2022-09-25T08:27:01.266Z,94052.78
2022-09-25T08:27:57.972Z,94049.44
2022-09-25T08:28:55.483Z,94047.38
2022-09-25T08:29:52.073Z,94044.16
2022-09-25T08:30:49.052Z,94042.72
2022-09-25T08:31:45.801Z,94040.84
2022-09-25T08:32:42.410Z,94041.06
2022-09-25T08:33:40.380Z,94041.25
2022-09-25T08:34:41.094Z,94036.28
2022-09-25T08:35:42.586Z,94018.94
2022-09-25T08:36:39.190Z,94030.94
2022-09-25T08:37:41.667Z,94032.81
2022-09-25T08:38:38.141Z,94034.28
2022-09-25T08:39:34.707Z,94029.72
2022-09-25T08:40:33.926Z,94035.19
2022-09-25T08:41:44.366Z,94032.41
2022-09-25T08:42:41.149Z,94029.47
2022-09-25T08:43:43.516Z,94031.72
2022-09-25T08:45:02.436Z,94036.53
2022-09-25T08:46:23.190Z,94030.84
2022-09-25T08:47:43.975Z,94035.41
2022-09-25T08:49:06.185Z,94028.91
2022-09-25T08:50:23.603Z,94038.06
2022-09-25T08:51:21.637Z,94031.44
2022-09-25T08:52:21.512Z,94035.84
2022-09-25T08:53:25.057Z,94036.97
2022-09-25T08:54:27.274Z,94036.56
2022-09-25T08:55:57.853Z,94039.59
2022-09-25T08:57:19.668Z,94036.19
2022-09-25T08:58:47.687Z,94041.56
2022-09-25T08:59:48.838Z,94038.94
2022-09-25T09:00:45.742Z,94025.06
2022-09-25T09:01:42.569Z,94037.03
2022-09-25T09:02:47.091Z,94044.03
2022-09-25T09:03:53.869Z,94038.97
2022-09-25T09:04:56.591Z,94038.97
2022-09-25T09:06:01.277Z,94036.31
2022-09-25T09:07:25.681Z,94034.75
2022-09-25T09:08:25.648Z,94031.19
2022-09-25T09:09:29.851Z,94032.38
2022-09-25T09:10:46.437Z,94030.44
2022-09-25T09:12:04.322Z,94028.16
2022-09-25T09:13:13.700Z,94016.06
2022-09-25T09:14:17.647Z,94023.06
2022-09-25T09:15:42.456Z,94021.59
2022-09-25T09:16:42.507Z,94018.22
2022-09-25T09:17:42.595Z,94007.16
2022-09-25T09:18:41.310Z,94012.31
2022-09-25T09:19:38.350Z,94017.38
2022-09-25T09:20:50.042Z,94021.59
2022-09-25T09:22:12.348Z,94009.69
2022-09-25T09:23:16.755Z,94005.81
2022-09-25T09:24:18.946Z,94009.31
2022-09-25T09:25:29.620Z,94005.72
2022-09-25T09:26:41.569Z,94003.88
2022-09-25T09:28:21.438Z,94008.13
2022-09-25T09:29:27.054Z,94010.47
2022-09-25T09:30:31.971Z,94008.13
2022-09-25T09:31:56.707Z,94005.28
2022-09-25T09:32:58.688Z,94015.72
2022-09-25T09:34:46.455Z,94013.84
2022-09-25T09:35:46.634Z,94005.84
2022-09-25T09:36:53.007Z,93998.41
2022-09-25T09:38:05.142Z,93998.75
2022-09-25T09:39:16.905Z,93995.63
2022-09-25T09:40:51.834Z,93991.09
2022-09-25T09:41:54.789Z,93993.81
2022-09-25T09:43:03.829Z,93986.91
2022-09-25T09:44:19.367Z,93997.75
2022-09-25T09:45:36.960Z,94001.97
2022-09-25T09:46:48.943Z,93990.41
2022-09-25T09:47:57.447Z,93991.50
2022-09-25T09:49:14.262Z,93998.47
2022-09-25T09:50:52.312Z,93993.84
2022-09-25T09:52:14.580Z,94001.53
2022-09-25T09:53:37.348Z,93997.34
2022-09-25T09:54:43.089Z,93998.09
2022-09-25T09:55:47.084Z,93993.47
2022-09-25T09:56:47.855Z,93991.13
2022-09-25T09:57:51.269Z,93983.41
2022-09-25T09:58:58.440Z,93985.34
2022-09-25T10:00:07.397Z,93989.63
2022-09-25T10:01:16.256Z,93989.59
2022-09-25T10:02:30.783Z,93984.22
2022-09-25T10:03:32.688Z,93983.78
2022-09-25T10:04:38.108Z,93988.47
2022-09-25T10:05:43.889Z,93987.59
2022-09-25T10:07:04.331Z,93985.13
2022-09-25T10:08:01.267Z,93987.69
2022-09-25T10:08:57.887Z,93977.16
2022-09-25T10:09:56.790Z,93978.81
2022-09-25T10:10:55.006Z,93976.09
2022-09-25T10:11:59.870Z,93977.78
2022-09-25T10:12:56.893Z,93970.38
2022-09-25T10:13:53.925Z,93969.72
2022-09-25T10:14:51.816Z,93964.28
2022-09-25T10:16:00.427Z,93964.31
2022-09-25T10:16:57.529Z,93972.81
2022-09-25T10:17:57.672Z,93972.34
2022-09-25T10:19:04.163Z,93974.06
2022-09-25T10:20:04.792Z,93968.88
2022-09-25T10:21:11.391Z,93968.38
2022-09-25T10:22:16.992Z,93969.03
2022-09-25T10:23:53.508Z,93959.16
2022-09-25T10:24:52.982Z,93961.75
2022-09-25T10:25:55.126Z,93966.94
2022-09-25T10:26:52.660Z,93975.66
2022-09-25T10:27:49.755Z,93963.50
2022-09-25T10:28:46.834Z,93955.03
2022-09-25T10:29:43.472Z,93951.31
2022-09-25T10:30:46.581Z,93957.66
2022-09-25T10:31:43.400Z,93935.41
2022-09-25T10:33:13.314Z,93961.91
2022-09-25T10:34:12.764Z,93958.75
2022-09-25T10:35:18.298Z,93940.31
2022-09-25T10:36:29.211Z,93945.53
2022-09-25T10:37:34.833Z,93949.84
2022-09-25T10:38:39.300Z,93949.13
2022-09-25T10:39:44.650Z,93958.53
2022-09-25T10:40:46.646Z,93957.34
2022-09-25T10:41:44.408Z,93938.13
2022-09-25T10:42:42.296Z,93960.50
2022-09-25T10:44:20.684Z,93954.66
2022-09-25T10:45:23.019Z,93950.09
2022-09-25T10:47:00.098Z,93939.06
2022-09-25T10:48:15.380Z,93948.41
2022-09-25T10:49:38.748Z,93945.47
2022-09-25T10:50:36.994Z,93930.72
2022-09-25T10:51:33.677Z,93944.63
2022-09-25T10:52:48.248Z,93942.31
2022-09-25T10:53:46.786Z,93943.22
2022-09-25T10:54:45.729Z,93953.88
2022-09-25T10:55:51.140Z,93941.50
2022-09-25T10:56:49.274Z,93931.72
2022-09-25T10:57:47.863Z,93940.75
2022-09-25T10:58:44.449Z,93938.47
2022-09-25T10:59:51.013Z,93946.81
2022-09-25T11:00:59.566Z,93935.09
2022-09-25T11:01:56.539Z,93944.19
2022-09-25T11:03:00.514Z,93948.63
2022-09-25T11:03:58.542Z,93937.41
2022-09-25T11:04:57.118Z,93926.47
2022-09-25T11:06:04.132Z,93936.28
2022-09-25T11:07:08.141Z,93932.38
2022-09-25T11:08:07.951Z,93925.72
2022-09-25T11:09:12.552Z,93931.50
2022-09-25T11:10:23.853Z,93933.00
2022-09-25T11:11:26.927Z,93929.13
2022-09-25T11:12:26.603Z,93908.47
2022-09-25T11:13:27.150Z,93912.72
2022-09-25T11:14:28.735Z,93924.41
2022-09-25T11:15:27.791Z,93920.38
2022-09-25T11:16:51.065Z,93912.91
2022-09-25T11:17:51.716Z,93915.78
2022-09-25T11:19:04.937Z,93916.28
2022-09-25T11:20:16.773Z,93921.31
2022-09-25T11:21:26.010Z,93920.59
2022-09-25T11:22:36.233Z,93916.59
2022-09-25T11:23:43.066Z,93923.72
2022-09-25T11:24:47.152Z,93924.50
2022-09-25T11:25:53.740Z,93921.63
2022-09-25T11:27:04.969Z,93919.94
2022-09-25T11:28:13.306Z,93920.59
2022-09-25T11:29:25.627Z,93914.09
2022-09-25T11:30:24.047Z,93902.72
2022-09-25T11:31:44.898Z,93906.25
2022-09-25T11:33:00.213Z,93912.69
2022-09-25T11:34:17.188Z,93904.97
2022-09-25T11:35:30.555Z,93908.44
2022-09-25T11:37:00.416Z,93898.88
2022-09-25T11:38:06.097Z,93895.19
2022-09-25T11:39:28.616Z,93900.09
2022-09-25T11:41:07.680Z,93893.97
2022-09-25T11:42:14.660Z,93893.97
2022-09-25T11:43:15.425Z,93884.28
2022-09-25T11:44:34.328Z,93900.34
2022-09-25T11:45:36.823Z,93898.03
2022-09-25T11:46:51.339Z,93895.00
2022-09-25T11:47:58.767Z,93898.84
2022-09-25T11:49:12.402Z,93892.34
2022-09-25T11:50:16.085Z,93886.16
2022-09-25T11:51:18.661Z,93886.47
2022-09-25T11:53:02.636Z,93872.13
2022-09-25T11:54:34.557Z,93876.25
2022-09-25T11:55:54.544Z,93872.91
2022-09-25T11:57:09.238Z,93873.81
2022-09-25T11:58:15.050Z,93873.19
2022-09-25T11:59:38.496Z,93866.72
2022-09-25T12:00:45.410Z,93870.41
2022-09-25T12:02:03.749Z,93859.75
2022-09-25T12:03:15.957Z,93867.97
2022-09-25T12:04:57.024Z,93860.84
2022-09-25T12:06:16.808Z,93863.91
2022-09-25T12:07:22.469Z,93849.38
2022-09-25T12:08:57.289Z,93857.00
2022-09-25T12:10:24.325Z,93863.44
2022-09-25T12:11:23.777Z,93858.19
2022-09-25T12:12:36.662Z,93857.06
2022-09-25T12:13:49.485Z,93859.34
2022-09-25T12:14:55.056Z,93847.97
2022-09-25T12:16:07.646Z,93844.81